Time;durP1;ratioP1;P1;durP2;ratioP2;P2;SDS_P1;SDS_P2;PMS_P1;PMS_P2;Temp;Humidity;BMP_temperature;BMP_pressure;BME280_temperature;BME280_humidity;BME280_pressure;Samples;Min_cycle;Max_cycle;Signal;HPM_P1;HPM_P2
2022/10/04 00:01:52;;;;;;;0.80;0.80;;;5.70;99.90;;;;;;5005299;28;20216;-76
2022/10/04 00:04:42;;;;;;;0.70;0.70;;;5.70;99.90;;;;;;5012692;28;20172;-76
2022/10/04 00:07:11;;;;;;;0.70;0.70;;;5.60;99.90;;;;;;5012870;28;20264;-76
2022/10/04 00:09:54;;;;;;;0.77;0.77;;;5.60;99.90;;;;;;5011540;28;20184;-77
2022/10/04 00:12:27;;;;;;;0.70;0.70;;;5.70;99.90;;;;;;5012716;28;20291;-76
2022/10/04 00:14:56;;;;;;;0.77;0.77;;;5.70;99.90;;;;;;5013138;28;20180;-76
2022/10/04 00:17:29;;;;;;;0.70;0.70;;;5.70;99.90;;;;;;5012910;28;20176;-77
2022/10/04 00:19:55;;;;;;;0.87;0.87;;;5.70;99.90;;;;;;5010714;28;20200;-77
2022/10/04 00:22:24;;;;;;;1.10;1.10;;;5.80;99.90;;;;;;5012251;28;20540;-77
2022/10/04 00:25:00;;;;;;;0.90;0.90;;;5.50;99.90;;;;;;5012509;28;20184;-76
2022/10/04 00:27:27;;;;;;;1.00;1.00;;;5.50;99.90;;;;;;5012550;28;20172;-76
2022/10/04 00:30:01;;;;;;;0.90;0.90;;;5.40;99.90;;;;;;5011778;28;20342;-76
2022/10/04 00:32:39;;;;;;;0.70;0.70;;;5.30;99.90;;;;;;5012259;28;20680;-77
2022/10/04 00:35:23;;;;;;;0.70;0.70;;;5.30;99.90;;;;;;5012393;28;20176;-77
2022/10/04 00:38:08;;;;;;;0.70;0.70;;;5.30;99.90;;;;;;5012272;28;20203;-77
2022/10/04 00:40:47;;;;;;;0.80;0.80;;;5.30;99.90;;;;;;5011829;28;20192;-77
2022/10/04 00:43:16;;;;;;;0.60;0.60;;;5.30;99.90;;;;;;5012268;28;20576;-76
2022/10/04 00:45:46;;;;;;;0.80;0.80;;;5.30;99.90;;;;;;5012181;28;20527;-76
2022/10/04 00:48:33;;;;;;;0.60;0.60;;;5.40;99.90;;;;;;5012013;28;20585;-76
2022/10/04 00:51:02;;;;;;;0.70;0.70;;;5.30;99.90;;;;;;5011527;28;20270;-76
2022/10/04 00:53:46;;;;;;;0.73;0.73;;;5.30;99.90;;;;;;5012050;28;20937;-76
2022/10/04 00:56:19;;;;;;;0.70;0.70;;;5.20;99.90;;;;;;5011827;28;20178;-76
2022/10/04 00:59:13;;;;;;;0.80;0.80;;;5.00;99.90;;;;;;5012111;28;20183;-77
2022/10/04 01:01:38;;;;;;;0.70;0.70;;;5.00;99.90;;;;;;5011568;28;20238;-77
2022/10/04 01:04:21;;;;;;;0.70;0.70;;;4.90;99.90;;;;;;5011908;28;20578;-77
2022/10/04 01:06:47;;;;;;;0.70;0.70;;;4.80;99.90;;;;;;5011824;28;20267;-76
2022/10/04 01:09:14;;;;;;;0.70;0.70;;;4.70;99.90;;;;;;5011929;28;20259;-76
2022/10/04 01:11:51;;;;;;;0.70;0.70;;;4.80;99.90;;;;;;5011176;28;20216;-76
2022/10/04 01:14:30;;;;;;;0.70;0.70;;;4.80;99.90;;;;;;5011762;28;20512;-76
2022/10/04 01:16:56;;;;;;;0.70;0.70;;;4.80;99.90;;;;;;5011759;28;20207;-76
2022/10/04 01:19:21;;;;;;;0.70;0.70;;;4.80;99.90;;;;;;5011342;28;20668;-77
2022/10/04 01:21:59;;;;;;;0.70;0.70;;;4.80;99.90;;;;;;5010909;28;20200;-76
2022/10/04 01:24:33;;;;;;;0.70;0.70;;;4.90;99.90;;;;;;5011504;28;20705;-77
2022/10/04 01:26:59;;;;;;;0.80;0.80;;;4.80;99.90;;;;;;5011435;28;20697;-76
2022/10/04 01:29:28;;;;;;;0.80;0.80;;;4.70;99.90;;;;;;5011145;28;20201;-77
2022/10/04 01:31:57;;;;;;;0.70;0.70;;;4.80;99.90;;;;;;5010804;28;20224;-76
2022/10/04 01:34:25;;;;;;;0.70;0.70;;;4.70;99.90;;;;;;5011678;28;20192;-77
2022/10/04 01:36:54;;;;;;;0.70;0.70;;;4.60;99.90;;;;;;5011329;28;20651;-76
2022/10/04 01:39:22;;;;;;;0.70;0.70;;;4.50;99.90;;;;;;5011419;28;20242;-75
2022/10/04 01:42:14;;;;;;;0.70;0.70;;;4.50;99.90;;;;;;5011043;28;20251;-76
2022/10/04 01:45:02;;;;;;;0.70;0.70;;;4.40;99.90;;;;;;5011512;28;20184;-76
2022/10/04 01:47:49;;;;;;;0.70;0.70;;;4.40;99.90;;;;;;5011775;28;20181;-75
2022/10/04 01:50:27;;;;;;;0.70;0.70;;;4.40;99.90;;;;;;5011869;28;20224;-76
2022/10/04 01:53:00;;;;;;;0.70;0.70;;;4.30;99.90;;;;;;5012457;28;20256;-75
2022/10/04 01:55:33;;;;;;;0.70;0.70;;;4.40;99.90;;;;;;5012439;28;20513;-75
2022/10/04 01:58:22;;;;;;;0.80;0.80;;;4.40;99.90;;;;;;5011775;28;20203;-75
2022/10/04 02:01:09;;;;;;;0.73;0.73;;;4.40;99.90;;;;;;5010103;28;20216;-76
2022/10/04 02:03:53;;;;;;;0.70;0.70;;;4.40;99.90;;;;;;5011400;28;20183;-77
2022/10/04 02:06:20;;;;;;;0.70;0.70;;;4.40;99.90;;;;;;5011383;28;20517;-76
2022/10/04 02:08:49;;;;;;;0.80;0.80;;;4.40;99.90;;;;;;5011177;28;20550;-76
2022/10/04 02:11:20;;;;;;;0.70;0.70;;;4.40;99.90;;;;;;5010328;28;20739;-76
2022/10/04 02:13:49;;;;;;;0.60;0.60;;;4.40;99.90;;;;;;5011308;28;20517;-76
2022/10/04 02:16:16;;;;;;;0.70;0.70;;;4.30;99.90;;;;;;5011393;28;20204;-76
2022/10/04 02:18:44;;;;;;;0.70;0.70;;;4.30;99.90;;;;;;5011426;28;20215;-76
2022/10/04 02:21:11;;;;;;;0.70;0.70;;;4.40;99.90;;;;;;5010970;28;20203;-77
2022/10/04 02:23:39;;;;;;;0.70;0.70;;;4.30;99.90;;;;;;5010929;28;20184;-76
2022/10/04 02:26:10;;;;;;;0.80;0.80;;;4.30;99.90;;;;;;5010826;28;20191;-76
2022/10/04 02:28:36;;;;;;;0.80;0.80;;;4.20;99.90;;;;;;5010858;28;20176;-76
2022/10/04 02:33:50;;;;;;;0.90;0.90;;;4.20;99.90;;;;;;5012522;28;20180;-76
2022/10/04 02:36:18;;;;;;;0.80;0.80;;;4.20;99.90;;;;;;5014410;28;20704;-77
2022/10/04 02:38:59;;;;;;;0.70;0.70;;;4.30;99.90;;;;;;5014565;28;20211;-74
2022/10/04 02:41:42;;;;;;;0.70;0.70;;;4.40;99.90;;;;;;5014180;28;20196;-74
2022/10/04 02:44:20;;;;;;;0.70;0.70;;;4.30;99.90;;;;;;5014432;28;20173;-75
2022/10/04 02:47:07;;;;;;;0.60;0.60;;;4.50;99.90;;;;;;5015270;28;20180;-74
2022/10/04 02:49:45;;;;;;;0.80;0.80;;;4.40;99.90;;;;;;5014542;28;20706;-76
2022/10/04 02:52:18;;;;;;;0.80;0.80;;;4.30;99.90;;;;;;5014399;28;20303;-77
2022/10/04 02:54:52;;;;;;;0.80;0.80;;;4.30;99.90;;;;;;5014149;28;20173;-77
2022/10/04 02:57:21;;;;;;;0.70;0.70;;;4.30;99.90;;;;;;5014085;28;20184;-75
2022/10/04 02:59:48;;;;;;;0.80;0.80;;;4.30;99.90;;;;;;5013449;28;20200;-77
2022/10/04 03:02:22;;;;;;;0.80;0.80;;;4.30;99.90;;;;;;5014211;28;20176;-76
2022/10/04 03:04:49;;;;;;;0.80;0.80;;;4.20;99.90;;;;;;5014121;28;20184;-75
2022/10/04 03:07:15;;;;;;;0.80;0.80;;;4.10;99.90;;;;;;5013994;28;20671;-75
2022/10/04 03:09:41;;;;;;;0.80;0.80;;;4.10;99.90;;;;;;5013343;28;20184;-77
2022/10/04 03:12:09;;;;;;;0.80;0.80;;;4.00;99.90;;;;;;5014160;28;20219;-75
2022/10/04 03:14:37;;;;;;;0.80;0.80;;;3.90;99.90;;;;;;5013900;28;20204;-76
2022/10/04 03:17:03;;;;;;;0.70;0.70;;;3.90;99.90;;;;;;5013809;28;20172;-76
2022/10/04 03:19:32;;;;;;;0.70;0.70;;;3.90;99.90;;;;;;5013112;28;20564;-78
2022/10/04 03:22:01;;;;;;;0.70;0.70;;;4.00;99.90;;;;;;5013645;28;20319;-75
2022/10/04 03:24:30;;;;;;;0.60;0.60;;;4.00;99.90;;;;;;5013815;28;20185;-75
2022/10/04 03:26:59;;;;;;;0.70;0.70;;;3.90;99.90;;;;;;5013765;28;20296;-74
2022/10/04 03:29:29;;;;;;;0.77;0.77;;;3.90;99.90;;;;;;5012957;28;20294;-75
2022/10/04 03:31:57;;;;;;;0.70;0.70;;;3.90;99.90;;;;;;5013225;28;20216;-75
2022/10/04 03:34:26;;;;;;;0.70;0.70;;;3.90;99.90;;;;;;5013286;28;20263;-77
2022/10/04 03:36:55;;;;;;;0.60;0.60;;;4.00;99.90;;;;;;5013115;28;20197;-77
2022/10/04 03:39:37;;;;;;;0.80;0.80;;;4.00;99.90;;;;;;5013361;28;20188;-75
2022/10/04 03:42:17;;;;;;;0.80;0.80;;;4.00;99.90;;;;;;5013284;28;20181;-75
2022/10/04 03:44:44;;;;;;;0.70;0.70;;;4.00;99.90;;;;;;5012899;28;20206;-77
2022/10/04 03:47:12;;;;;;;0.73;0.73;;;4.00;99.90;;;;;;5010533;28;20579;-74
2022/10/04 03:49:39;;;;;;;0.70;0.70;;;4.00;99.90;;;;;;5012086;28;20184;-74
2022/10/04 03:52:11;;;;;;;0.70;0.70;;;3.90;99.90;;;;;;5012951;28;20222;-77
2022/10/04 03:54:37;;;;;;;0.80;0.80;;;3.90;99.90;;;;;;5012832;28;20649;-78
2022/10/04 03:57:05;;;;;;;0.80;0.80;;;4.00;99.90;;;;;;5012807;28;20218;-77
2022/10/04 03:59:33;;;;;;;0.70;0.70;;;3.90;99.90;;;;;;5012190;28;20200;-77
2022/10/04 04:02:17;;;;;;;0.80;0.80;;;3.80;99.90;;;;;;5012938;28;20187;-74
2022/10/04 04:05:03;;;;;;;0.80;0.80;;;3.80;99.90;;;;;;5012571;28;20176;-77
2022/10/04 04:07:41;;;;;;;0.80;0.80;;;3.80;99.90;;;;;;5012758;28;20195;-77
2022/10/04 04:10:29;;;;;;;0.70;0.70;;;3.90;99.90;;;;;;5011704;28;20184;-78
2022/10/04 04:12:57;;;;;;;0.80;0.80;;;3.90;99.90;;;;;;5012149;28;20180;-75
2022/10/04 04:15:30;;;;;;;0.70;0.70;;;4.00;99.90;;;;;;5012616;28;20251;-77
2022/10/04 04:18:01;;;;;;;0.80;0.80;;;4.00;99.90;;;;;;5012708;28;20196;-75
2022/10/04 04:20:34;;;;;;;0.70;0.70;;;4.00;99.90;;;;;;5012555;28;20207;-76
2022/10/04 04:23:13;;;;;;;0.70;0.70;;;4.00;99.90;;;;;;5011461;28;20200;-76
2022/10/04 04:25:43;;;;;;;0.83;0.83;;;4.00;99.90;;;;;;5013179;28;20203;-77
2022/10/04 04:28:39;;;;;;;0.90;0.90;;;4.00;99.90;;;;;;5012487;28;20636;-75
2022/10/04 04:31:17;;;;;;;0.70;0.70;;;3.90;99.90;;;;;;5011272;28;20208;-77
2022/10/04 04:33:59;;;;;;;0.80;0.80;;;3.90;99.90;;;;;;5012457;28;20168;-77
2022/10/04 04:36:28;;;;;;;0.80;0.80;;;4.00;99.90;;;;;;5012058;28;20664;-76
2022/10/04 04:39:38;;;;;;;0.90;0.90;;;4.00;99.90;;;;;;5011830;28;20172;-75
2022/10/04 04:42:13;;;;;;;0.87;0.87;;;4.00;99.90;;;;;;5012407;28;20691;-76
2022/10/04 04:44:46;;;;;;;0.90;0.90;;;3.90;99.90;;;;;;5011502;28;20176;-77
2022/10/04 04:47:26;;;;;;;0.90;0.90;;;3.80;99.90;;;;;;5012093;28;20208;-77
2022/10/04 04:49:52;;;;;;;0.80;0.80;;;3.80;99.90;;;;;;5011704;28;20208;-78
2022/10/04 04:52:24;;;;;;;0.80;0.80;;;3.90;99.90;;;;;;5012103;28;20219;-76
2022/10/04 04:54:51;;;;;;;0.80;0.80;;;3.80;99.90;;;;;;5012192;28;20180;-75
2022/10/04 04:57:17;;;;;;;0.80;0.80;;;3.90;99.90;;;;;;5011332;28;20568;-77
2022/10/04 04:59:52;;;;;;;0.80;0.80;;;3.90;99.90;;;;;;5011291;28;20640;-77
2022/10/04 05:02:34;;;;;;;0.70;0.70;;;4.10;99.90;;;;;;5011120;28;20187;-74
2022/10/04 05:05:13;;;;;;;0.73;0.73;;;4.10;99.90;;;;;;5011172;28;20559;-77
2022/10/04 05:07:42;;;;;;;0.80;0.80;;;4.20;99.90;;;;;;5012515;28;20259;-77
2022/10/04 05:10:31;;;;;;;0.70;0.70;;;4.20;99.90;;;;;;5011798;28;20572;-77
2022/10/04 05:13:02;;;;;;;0.80;0.80;;;4.20;99.90;;;;;;5011694;28;20649;-74
2022/10/04 05:15:34;;;;;;;0.90;0.90;;;4.10;99.90;;;;;;5011781;28;20199;-78
2022/10/04 05:18:01;;;;;;;0.80;0.80;;;4.20;99.90;;;;;;5011610;28;20211;-78
2022/10/04 05:20:29;;;;;;;0.80;0.80;;;4.20;99.90;;;;;;5011140;28;20255;-77
2022/10/04 05:22:57;;;;;;;0.90;0.90;;;4.20;99.90;;;;;;5011428;28;20173;-77
2022/10/04 05:25:30;;;;;;;0.70;0.70;;;4.20;99.90;;;;;;5011735;28;20180;-76
2022/10/04 05:27:56;;;;;;;0.80;0.80;;;4.20;99.90;;;;;;5011569;28;20200;-75
2022/10/04 05:30:27;;;;;;;0.73;0.73;;;4.20;99.90;;;;;;5011053;28;20731;-76
2022/10/04 05:33:08;;;;;;;0.90;0.90;;;4.20;99.90;;;;;;5011506;28;20389;-76
2022/10/04 05:35:41;;;;;;;0.80;0.80;;;4.20;99.90;;;;;;5011417;28;20307;-75
2022/10/04 05:38:19;;;;;;;0.90;0.90;;;4.20;99.90;;;;;;5011592;28;20168;-76
2022/10/04 05:40:52;;;;;;;1.00;1.00;;;4.10;99.90;;;;;;5010915;28;20218;-75
2022/10/04 05:43:26;;;;;;;1.03;1.03;;;4.00;99.90;;;;;;5011660;28;20180;-75
2022/10/04 05:46:12;;;;;;;0.90;0.90;;;4.00;99.90;;;;;;5011334;28;20640;-76
2022/10/04 05:48:42;;;;;;;0.90;0.90;;;4.20;99.90;;;;;;5011374;28;20685;-76
2022/10/04 05:51:26;;;;;;;1.07;1.03;;;4.20;99.90;;;;;;5010732;28;20288;-75
2022/10/04 05:53:55;;;;;;;0.90;0.90;;;4.30;99.90;;;;;;5011274;28;20786;-75
2022/10/04 05:56:29;;;;;;;1.10;1.10;;;4.50;99.90;;;;;;5011138;28;20168;-76
2022/10/04 05:59:17;;;;;;;0.97;0.97;;;4.50;99.90;;;;;;5011541;28;20176;-78
2022/10/04 06:02:20;;;;;;;0.90;0.90;;;4.40;99.90;;;;;;5010721;28;20200;-73
2022/10/04 06:05:01;;;;;;;0.93;0.93;;;4.60;99.90;;;;;;5010861;28;20180;-73
2022/10/04 06:07:48;;;;;;;0.80;0.80;;;5.30;99.90;;;;;;5014332;28;20199;-73
2022/10/04 06:10:40;;;;;;;0.97;0.97;;;4.90;99.90;;;;;;5027025;28;20199;-72
2022/10/04 06:13:33;;;;;;;0.70;0.70;;;4.80;99.90;;;;;;5029087;28;20242;-72
2022/10/04 06:16:18;;;;;;;0.90;0.90;;;4.80;99.90;;;;;;5014589;28;20559;-73
2022/10/04 06:19:08;;;;;;;0.80;0.80;;;4.80;99.90;;;;;;5009828;28;20212;-73
2022/10/04 06:21:48;;;;;;;0.80;0.80;;;4.90;99.90;;;;;;5013112;28;20205;-73
2022/10/04 06:24:19;;;;;;;0.70;0.70;;;5.10;99.90;;;;;;5011754;28;20165;-72
2022/10/04 06:26:58;;;;;;;0.60;0.60;;;5.20;99.90;;;;;;5014679;28;20278;-73
2022/10/04 06:29:27;;;;;;;0.80;0.80;;;5.30;99.90;;;;;;5012829;28;20659;-73
2022/10/04 06:32:05;;;;;;;0.70;0.70;;;5.20;99.90;;;;;;5014187;28;20216;-73
2022/10/04 06:34:44;;;;;;;0.80;0.80;;;5.10;99.90;;;;;;5014752;28;20211;-72
2022/10/04 06:37:18;;;;;;;0.80;0.80;;;5.20;99.90;;;;;;5014220;28;20192;-72
2022/10/04 06:39:53;;;;;;;0.80;0.80;;;5.00;99.90;;;;;;5014780;28;20188;-76
2022/10/04 06:42:26;;;;;;;0.60;0.60;;;5.10;99.90;;;;;;5013820;28;20237;-75
2022/10/04 06:45:03;;;;;;;0.80;0.80;;;5.30;99.90;;;;;;5014022;28;20175;-75
2022/10/04 06:47:42;;;;;;;0.77;0.77;;;5.40;99.90;;;;;;5025182;28;20542;-75
2022/10/04 06:50:39;;;;;;;0.77;0.77;;;5.50;99.90;;;;;;5033228;28;20261;-75
2022/10/04 06:53:38;;;;;;;0.70;0.70;;;5.40;99.90;;;;;;5033826;28;20206;-77
2022/10/04 06:56:30;;;;;;;0.60;0.60;;;5.60;99.90;;;;;;5033754;28;20180;-76
2022/10/04 06:59:25;;;;;;;0.60;0.60;;;5.70;99.90;;;;;;5033494;28;20721;-75
2022/10/04 07:01:56;;;;;;;0.80;0.80;;;5.80;99.90;;;;;;5033467;28;20187;-75
2022/10/04 07:04:37;;;;;;;0.80;0.80;;;5.90;99.90;;;;;;5033670;28;20182;-77
2022/10/04 07:07:26;;;;;;;0.70;0.70;;;6.10;99.90;;;;;;5033481;28;20176;-75
2022/10/04 07:09:58;;;;;;;0.70;0.70;;;6.20;99.90;;;;;;5033002;28;20195;-75
2022/10/04 07:12:26;;;;;;;0.70;0.70;;;6.10;99.90;;;;;;5033521;28;20285;-75
2022/10/04 07:14:56;;;;;;;0.70;0.70;;;6.10;99.90;;;;;;5033516;28;20176;-76
2022/10/04 07:17:29;;;;;;;0.60;0.60;;;6.30;99.90;;;;;;5033169;28;20202;-76
2022/10/04 07:19:58;;;;;;;0.70;0.70;;;6.40;99.90;;;;;;5031059;28;20200;-77
2022/10/04 07:22:43;;;;;;;0.70;0.70;;;6.50;99.90;;;;;;5033331;28;20529;-76
2022/10/04 07:25:23;;;;;;;0.70;0.70;;;6.60;99.90;;;;;;5033192;28;20195;-77
2022/10/04 07:31:19;;;;;;;0.70;0.70;;;6.70;99.90;;;;;;5017635;28;20231;-76
2022/10/04 07:33:50;;;;;;;0.80;0.80;;;6.80;99.90;;;;;;5008088;28;20192;-76
2022/10/04 07:36:42;;;;;;;0.80;0.80;;;6.80;99.90;;;;;;5013620;28;20543;-77
2022/10/04 07:39:33;;;;;;;0.63;0.63;;;6.90;99.90;;;;;;5005645;28;20220;-76
2022/10/04 07:42:15;;;;;;;0.70;0.70;;;7.00;99.90;;;;;;5015059;28;20180;-77
2022/10/04 07:44:43;;;;;;;0.70;0.70;;;7.10;99.90;;;;;;5015696;28;20265;-75
2022/10/04 07:47:20;;;;;;;0.70;0.70;;;7.30;99.90;;;;;;5013681;28;20180;-77
2022/10/04 07:49:49;;;;;;;0.70;0.70;;;7.50;99.90;;;;;;5012529;28;20204;-75
2022/10/04 07:52:20;;;;;;;0.60;0.60;;;7.50;99.90;;;;;;5013178;28;20311;-77
2022/10/04 07:54:50;;;;;;;0.70;0.70;;;7.60;99.90;;;;;;5012996;28;20180;-77
2022/10/04 07:57:28;;;;;;;0.80;0.80;;;7.80;99.90;;;;;;5013007;28;20215;-77
2022/10/04 08:00:16;;;;;;;0.70;0.70;;;7.90;99.90;;;;;;5015622;28;20275;-75
2022/10/04 08:03:00;;;;;;;0.60;0.60;;;8.00;99.90;;;;;;5034342;28;20171;-76
2022/10/04 08:05:34;;;;;;;0.70;0.70;;;8.00;99.90;;;;;;5034129;28;20271;-76
2022/10/04 08:08:26;;;;;;;0.60;0.60;;;8.30;99.90;;;;;;5032429;28;20602;-76
2022/10/04 08:11:32;;;;;;;0.60;0.60;;;8.50;99.90;;;;;;5032118;28;20211;-76
2022/10/04 08:14:31;;;;;;;0.60;0.60;;;8.60;99.90;;;;;;5016394;28;20606;-76
2022/10/04 08:17:21;;;;;;;0.60;0.60;;;8.30;99.90;;;;;;5032579;28;20276;-76
2022/10/04 08:19:56;;;;;;;0.60;0.60;;;8.10;99.90;;;;;;5100914;22;20237;-82
2022/10/04 08:22:27;;;;;;;0.60;0.60;;;8.30;99.90;;;;;;5082260;28;20189;-81
2022/10/04 08:25:32;;;;;;;0.70;0.70;;;8.30;99.90;;;;;;5079325;28;20233;-82
2022/10/04 08:31:11;;;;;;;0.70;0.70;;;8.40;99.90;;;;;;5061363;28;20318;-82
2022/10/04 08:34:01;;;;;;;0.60;0.60;;;8.80;99.90;;;;;;5063203;28;20213;-81
2022/10/04 08:36:51;;;;;;;0.60;0.60;;;8.90;99.90;;;;;;5058809;28;20183;-80
2022/10/04 08:39:43;;;;;;;0.60;0.60;;;8.90;99.90;;;;;;5060937;28;20695;-82
2022/10/04 08:42:54;;;;;;;0.60;0.60;;;9.20;99.90;;;;;;5055342;28;20178;-80
2022/10/04 08:45:31;;;;;;;0.60;0.60;;;9.50;99.90;;;;;;5086096;28;20228;-82
2022/10/04 08:48:24;;;;;;;0.50;0.50;;;10.10;99.90;;;;;;5090316;28;20249;-78
2022/10/04 08:51:20;;;;;;;0.50;0.50;;;10.10;32.10;;;;;;5086372;28;20199;-78
2022/10/04 08:54:24;;;;;;;0.50;0.50;;;9.90;26.90;;;;;;5085457;28;20177;-78
2022/10/04 08:57:27;;;;;;;0.50;0.50;;;10.40;1.90;;;;;;5076213;28;20189;-77
2022/10/04 09:00:19;;;;;;;0.50;0.50;;;10.50;1.00;;;;;;5070519;28;20209;-77
2022/10/04 09:03:25;;;;;;;0.40;0.40;;;10.60;1.00;;;;;;5077610;28;20178;-77
2022/10/04 09:06:11;;;;;;;0.47;0.47;;;11.30;1.00;;;;;;5075665;28;20179;-79
2022/10/04 09:09:11;;;;;;;0.50;0.50;;;11.60;1.00;;;;;;5075312;28;20186;-78
2022/10/04 09:11:57;;;;;;;0.40;0.40;;;11.90;1.00;;;;;;5072362;28;20585;-77
2022/10/04 09:14:45;;;;;;;0.50;0.50;;;12.20;1.00;;;;;;5072970;28;20178;-77
2022/10/04 09:17:18;;;;;;;0.40;0.40;;;12.70;99.90;;;;;;5074171;28;20182;-78
2022/10/04 09:20:31;;;;;;;0.40;0.40;;;14.00;1.00;;;;;;5074705;28;20682;-78
2022/10/04 09:23:10;;;;;;;0.40;0.40;;;14.50;1.00;;;;;;5061717;28;20190;-79
2022/10/04 09:25:49;;;;;;;0.40;0.40;;;14.70;99.90;;;;;;5077126;28;20189;-79
2022/10/04 09:28:53;;;;;;;0.40;0.40;;;15.60;1.00;;;;;;5079577;28;20170;-79
2022/10/04 09:31:34;;;;;;;0.40;0.40;;;15.90;99.90;;;;;;5079990;28;20857;-78
2022/10/04 09:34:37;;;;;;;0.40;0.40;;;16.30;99.90;;;;;;5082025;28;20261;-79
2022/10/04 09:37:37;;;;;;;0.40;0.40;;;16.30;99.90;;;;;;5080461;28;20170;-78
2022/10/04 09:40:12;;;;;;;0.30;0.30;;;16.40;62.30;;;;;;5079491;28;20194;-78
2022/10/04 09:42:56;;;;;;;0.40;0.40;;;16.70;99.90;;;;;;5077334;28;20181;-79
2022/10/04 09:45:47;;;;;;;0.40;0.40;;;17.30;35.90;;;;;;5073344;28;20183;-78
2022/10/04 09:48:34;;;;;;;0.40;0.40;;;17.70;1.00;;;;;;5077956;28;20170;-79
2022/10/04 09:51:24;;;;;;;0.43;0.43;;;17.50;1.00;;;;;;5077919;28;20237;-79
2022/10/04 09:54:44;;;;;;;0.30;0.30;;;17.00;1.00;;;;;;5076457;28;20663;-78
2022/10/04 09:57:28;;;;;;;0.40;0.40;;;17.20;9.50;;;;;;5080080;28;20246;-77
2022/10/04 10:00:17;;;;;;;0.33;0.33;;;17.00;99.90;;;;;;5080876;28;20678;-78
2022/10/04 10:03:11;;;;;;;0.20;0.20;;;17.30;1.00;;;;;;5082430;28;20180;-78
2022/10/04 10:05:48;;;;;;;0.43;0.43;;;17.90;1.00;;;;;;5081055;28;20178;-78
2022/10/04 10:08:34;;;;;;;0.40;0.40;;;17.10;1.00;;;;;;5074346;28;20225;-77
2022/10/04 10:14:02;;;;;;;0.37;0.37;;;17.50;1.00;;;;;;5074564;28;20193;-78
2022/10/04 10:16:33;;;;;;;0.40;0.40;;;17.70;1.00;;;;;;5074327;28;20178;-78
2022/10/04 10:19:20;;;;;;;0.30;0.30;;;18.20;1.00;;;;;;5070316;28;20316;-77
2022/10/04 10:21:58;;;;;;;0.40;0.40;;;18.30;1.00;;;;;;5074038;28;20204;-78
2022/10/04 10:24:23;;;;;;;0.30;0.30;;;18.00;1.00;;;;;;5074131;28;20654;-77
2022/10/04 10:26:55;;;;;;;0.40;0.40;;;18.00;1.00;;;;;;5073097;28;20262;-78
2022/10/04 10:29:52;;;;;;;0.40;0.40;;;18.00;1.00;;;;;;5073632;28;20646;-78
2022/10/04 10:32:55;;;;;;;0.40;0.40;;;17.90;1.00;;;;;;5073944;28;20210;-78
2022/10/04 10:35:47;;;;;;;0.40;0.40;;;17.90;1.00;;;;;;5074836;28;20181;-78
2022/10/04 10:38:42;;;;;;;0.50;0.50;;;18.00;1.00;;;;;;5075575;28;20253;-79
2022/10/04 10:41:40;;;;;;;0.50;0.50;;;18.60;1.00;;;;;;5056966;28;20199;-78
2022/10/04 10:44:25;;;;;;;0.50;0.50;;;18.20;1.00;;;;;;5055595;28;20241;-79
2022/10/04 10:47:19;;;;;;;0.40;0.40;;;18.70;1.00;;;;;;5055713;28;20231;-77
2022/10/04 10:49:55;;;;;;;0.50;0.50;;;19.60;1.00;;;;;;5054096;28;20237;-78
2022/10/04 10:52:46;;;;;;;0.30;0.30;;;19.00;1.00;;;;;;5055782;28;20218;-78
2022/10/04 10:55:43;;;;;;;0.40;0.40;;;18.60;1.00;;;;;;5056105;28;20171;-78
2022/10/04 10:58:37;;;;;;;0.50;0.50;;;19.20;1.00;;;;;;5061571;28;20709;-79
2022/10/04 11:01:17;;;;;;;0.43;0.43;;;19.50;1.00;;;;;;5056210;28;20270;-77
2022/10/04 11:04:21;;;;;;;0.50;0.50;;;19.70;1.00;;;;;;5073412;28;20175;-80
2022/10/04 11:06:53;;;;;;;0.40;0.40;;;20.00;1.00;;;;;;5081650;28;20177;-78
2022/10/04 11:09:28;;;;;;;0.40;0.40;;;19.70;1.00;;;;;;5083360;28;20179;-80
2022/10/04 11:12:17;;;;;;;0.50;0.50;;;19.50;1.00;;;;;;5083164;28;20221;-79
2022/10/04 11:15:21;;;;;;;0.60;0.60;;;19.50;1.00;;;;;;5082366;28;20179;-79
2022/10/04 11:18:10;;;;;;;0.50;0.50;;;19.90;1.00;;;;;;5082582;28;20171;-80
2022/10/04 11:21:05;;;;;;;0.33;0.33;;;20.60;1.00;;;;;;5081577;28;20222;-79
2022/10/04 11:23:50;;;;;;;0.50;0.50;;;21.30;1.00;;;;;;5061749;28;20187;-78
2022/10/04 11:26:25;;;;;;;0.50;0.50;;;21.60;1.00;;;;;;5078660;28;20182;-78
2022/10/04 11:28:59;;;;;;;0.40;0.40;;;21.60;1.00;;;;;;5080199;28;20178;-78
2022/10/04 11:31:56;;;;;;;0.50;0.50;;;21.90;1.00;;;;;;5081792;28;20213;-78
2022/10/04 11:34:41;;;;;;;0.60;0.60;;;21.80;1.00;;;;;;5066483;28;20239;-79
2022/10/04 11:37:46;;;;;;;0.40;0.40;;;21.40;1.00;;;;;;5082838;28;20170;-79
2022/10/04 11:40:27;;;;;;;0.60;0.60;;;21.60;1.00;;;;;;5079490;28;20202;-80
2022/10/04 11:43:19;;;;;;;0.40;0.40;;;21.80;1.00;;;;;;5081682;28;20227;-80
2022/10/04 11:46:16;;;;;;;0.70;0.70;;;21.30;1.00;;;;;;5082507;28;20182;-81
2022/10/04 11:49:17;;;;;;;0.40;0.40;;;21.50;1.00;;;;;;5082901;28;20178;-79
2022/10/04 11:52:07;;;;;;;0.40;0.40;;;20.90;1.00;;;;;;5080509;28;20264;-79
2022/10/04 11:54:57;;;;;;;0.40;0.40;;;20.60;1.00;;;;;;5081703;28;20186;-79
2022/10/04 11:57:33;;;;;;;0.40;0.40;;;20.20;1.00;;;;;;5081921;28;20171;-80
2022/10/04 12:00:13;;;;;;;0.40;0.40;;;20.80;1.00;;;;;;5080953;28;20709;-79
2022/10/04 12:03:21;;;;;;;0.40;0.40;;;21.30;1.00;;;;;;5081309;28;20238;-78
2022/10/04 12:06:02;;;;;;;0.50;0.50;;;21.50;1.00;;;;;;5079185;28;20185;-79
2022/10/04 12:08:36;;;;;;;0.40;0.40;;;21.80;1.00;;;;;;5079070;28;20178;-79
2022/10/04 12:11:23;;;;;;;0.50;0.50;;;22.10;1.00;;;;;;5080410;28;20226;-80
2022/10/04 12:14:25;;;;;;;0.50;0.50;;;22.40;1.00;;;;;;5066093;28;20166;-80
2022/10/04 12:17:12;;;;;;;0.60;0.60;;;22.60;1.00;;;;;;5081814;28;20170;-81
2022/10/04 12:19:43;;;;;;;0.57;0.57;;;22.90;1.00;;;;;;5077362;28;20193;-81
2022/10/04 12:22:30;;;;;;;0.30;0.30;;;23.20;1.00;;;;;;5078336;28;20244;-81
2022/10/04 12:25:19;;;;;;;0.33;0.33;;;24.20;1.00;;;;;;5079118;28;20178;-80
2022/10/04 12:27:59;;;;;;;0.40;0.40;;;23.60;1.00;;;;;;5061112;28;20212;-80
2022/10/04 12:31:01;;;;;;;0.50;0.50;;;22.60;1.00;;;;;;5060202;28;20199;-81
2022/10/04 12:33:33;;;;;;;0.50;0.50;;;22.40;1.00;;;;;;5066698;28;20174;-83
2022/10/04 12:36:30;;;;;;;0.40;0.40;;;21.90;1.00;;;;;;5081489;28;20201;-80
2022/10/04 12:39:05;;;;;;;0.47;0.47;;;21.70;1.00;;;;;;5081388;28;20180;-81
2022/10/04 12:42:09;;;;;;;0.30;0.30;;;21.90;1.00;;;;;;5080418;28;20225;-80
2022/10/04 12:44:40;;;;;;;0.33;0.33;;;21.30;1.00;;;;;;5050865;28;20197;-79
2022/10/04 12:47:44;;;;;;;0.30;0.30;;;21.20;1.00;;;;;;5078810;28;20175;-79
2022/10/04 12:50:25;;;;;;;0.43;0.43;;;21.20;1.00;;;;;;5078590;28;20189;-79
2022/10/04 12:53:09;;;;;;;0.40;0.40;;;21.90;1.00;;;;;;5079472;28;20650;-80
2022/10/04 12:55:46;;;;;;;0.50;0.50;;;23.20;1.00;;;;;;5079767;28;20232;-80
2022/10/04 12:58:31;;;;;;;0.50;0.50;;;24.10;1.00;;;;;;5078526;28;20174;-80
2022/10/04 13:01:25;;;;;;;0.53;0.53;;;24.40;1.00;;;;;;5078222;28;20247;-80
2022/10/04 13:03:59;;;;;;;0.30;0.30;;;24.20;1.00;;;;;;5079271;28;20251;-79
2022/10/04 13:06:52;;;;;;;0.40;0.40;;;24.40;1.00;;;;;;5078553;28;20181;-80
2022/10/04 13:09:35;;;;;;;0.50;0.50;;;24.30;1.00;;;;;;5079271;28;20205;-80
2022/10/04 13:12:25;;;;;;;0.37;0.37;;;24.30;1.00;;;;;;5081648;28;20224;-81
2022/10/04 13:15:21;;;;;;;0.47;0.47;;;24.60;1.00;;;;;;5081682;28;20201;-81
2022/10/04 13:18:22;;;;;;;0.40;0.40;;;24.80;1.00;;;;;;5081402;28;20178;-80
2022/10/04 13:21:13;;;;;;;0.40;0.40;;;24.60;1.00;;;;;;5061276;28;20236;-81
2022/10/04 13:23:52;;;;;;;0.40;0.40;;;24.50;1.00;;;;;;5079541;28;20198;-80
2022/10/04 13:26:35;;;;;;;0.30;0.30;;;24.10;1.00;;;;;;5080302;28;20223;-80
2022/10/04 13:29:24;;;;;;;0.40;0.40;;;23.90;1.00;;;;;;5079483;28;20166;-79
2022/10/04 13:32:10;;;;;;;0.40;0.40;;;23.20;1.00;;;;;;5079851;28;20218;-80
2022/10/04 13:35:00;;;;;;;0.50;0.50;;;22.60;1.00;;;;;;5079218;28;20223;-80
2022/10/04 13:37:32;;;;;;;0.40;0.40;;;22.00;1.00;;;;;;5079202;28;20253;-80
2022/10/04 13:40:12;;;;;;;0.30;0.30;;;21.30;1.00;;;;;;5077155;28;20262;-80
2022/10/04 13:43:07;;;;;;;0.40;0.40;;;20.90;1.00;;;;;;5079562;28;20197;-79
2022/10/04 13:45:48;;;;;;;0.30;0.30;;;20.80;1.00;;;;;;5006905;28;20185;-79
2022/10/04 13:48:24;;;;;;;0.30;0.30;;;20.70;1.00;;;;;;5076966;28;20174;-78
2022/10/04 13:50:53;;;;;;;0.40;0.40;;;20.60;1.00;;;;;;5076256;28;20206;-79
2022/10/04 13:57:13;;;;;;;0.37;0.37;;;20.00;1.00;;;;;;5078995;28;20563;-79
2022/10/04 13:59:51;;;;;;;0.40;0.40;;;20.10;1.00;;;;;;5077803;28;20258;-80
2022/10/04 14:02:41;;;;;;;0.30;0.30;;;19.90;1.00;;;;;;5077757;28;20177;-79
2022/10/04 14:05:47;;;;;;;0.40;0.40;;;19.60;1.00;;;;;;5078099;28;20209;-79
2022/10/04 14:08:35;;;;;;;0.40;0.40;;;20.00;1.00;;;;;;5079481;28;20185;-80
2022/10/04 14:11:20;;;;;;;0.40;0.40;;;20.10;1.00;;;;;;5076294;28;20273;-80
2022/10/04 14:14:18;;;;;;;0.37;0.37;;;19.80;1.00;;;;;;5077085;28;20198;-79
2022/10/04 14:16:49;;;;;;;0.40;0.40;;;19.40;1.00;;;;;;5075984;28;20174;-79
2022/10/04 14:19:56;;;;;;;0.40;0.40;;;19.30;1.00;;;;;;5076399;28;20675;-79
2022/10/04 14:22:44;;;;;;;0.40;0.40;;;19.50;1.00;;;;;;5038100;28;20197;-80
2022/10/04 14:25:34;;;;;;;0.50;0.50;;;19.40;1.00;;;;;;5075713;28;20189;-79